Aérodrome :
LOGIN :

S'inscrire | Disclaimer

   EN    FR    IT 

 










Légende :    VFR   VFR Marginal   IFR   IFR Intensif   IFR Très Intensif
Visi : 
Plafond : 
>= 8 km
>= 3000ft
5 à 8 km
1000 à 3000 ft
1500m à 5 km
500 à 1000 ft
800 à 1500m
200 à 500 ft
< 800m
< 200 ft
Symboles :   Orages  Brouillard  Fortes neiges  Fortes précipitations  Vent > 20 kt
SIGMETs :   Divers  Orages  Givrage  Turbulence  Onde Orograph.  Cendres Volcan.







- Altitude de l'aérodrome : 433 ft
- Voir les cartes d'approche


LFOC - Chateaudun

DERNIER METAR :
  • 231630Z AUTO 23007KT 9999 -RA FEW004 SCT008 BKN016 13/12 Q1023

METARs EXPIRÉS :
  • 231600Z AUTO 21009KT 6000 -RA SCT005 BKN017 OVC024 13/12 Q1023
  • 231530Z AUTO 21009KT 9000 -RA SCT016 BKN023 OVC029 14/12 Q1023
  • 231500Z AUTO 24009KT 3400 -RA BR BKN020 BKN027 OVC035 14/12 Q1023 TEMPO RA SCT008 BKN012 BKN025
  • 231430Z AUTO 22009KT 9999 SCT020 SCT027 OVC038 15/12 Q1023 TEMPO 4000 RA SCT008 BKN012 BKN025
  • 231400Z AUTO 23009KT 9999 BKN021 BKN029 BKN045 15/12 Q1023 NOSIG

TAF TAF LFOC
Valide du 23 à 15h jusqu'au 24 à 15h UTC


231400Z 2315/2415 23008KT 9999 BKN020
TEMPO 2315/2321 4000 RA SCT008 BKN012 BKN025
PROB40
TEMPO 2321/2409 3000 -RADZ BKN006
Pas de NOTAMs connus pour ce terrain.



MET'MAP, la Météo Aéronautique d'un coup d'oeil ! - Copyright ORBIFLY Décembre 2007 - Disclaimer

ORBIFLY MET'MAP TEAM :

Programmation & Développement : Alexandra Zaïnal
Conception & Développement : Baudouin d'Aumeries
Co-Programmation & Développement : Marc-Olivier Méhu
Soutien technique & logistique : Manuel Goepfert

Contact : metmap@orbifly.com




SOURCES & CREDITS :

   NOAA